Date,TemperatureHighF,TemperatureAvgF,TemperatureLowF,DewpointHighF,DewpointAvgF,DewpointLowF,HumidityHigh,HumidityAvg,HumidityLow,PressureMaxIn,PressureMinIn,WindSpeedMaxMPH,WindSpeedAvgMPH,GustSpeedMaxMPH,PrecipitationSumIn
2013-1-1,36.2,34.7,32.3,34.0,28.6,21.3,96,80,58,30.00,29.80,9,0,9,0.10
2013-1-2,34.9,33.7,26.8,33.3,32.0,23.6,94,93,88,29.99,29.83,8,0,8,0.00
2013-1-17,31.2,29.6,27.1,30.5,28.6,25.1,97,96,92,30.07,29.87,3,0,3,0.09
2013-1-18,33.7,24.8,13.6,25.1,20.0,11.7,95,83,59,30.37,30.07,4,0,4,0.09
2013-1-19,46.3,28.3,9.2,29.8,19.2,7.1,95,72,46,30.33,29.97,8,1,12,0.21
2013-1-20,45.7,37.6,26.2,30.3,22.4,9.9,76,55,34,29.97,29.85,14,3,15,0.01
2013-1-21,39.7,27.5,17.7,19.2,12.6,3.1,86,56,33,29.94,29.74,23,3,23,0.00
2013-1-22,19.8,13.3,8.4,6.5,-0.7,-5.1,71,53,35,30.16,29.87,21,4,21,0.00
2013-1-23,23.7,16.1,8.9,14.8,3.1,-3.9,75,57,32,30.23,29.93,15,2,15,0.00
2013-1-24,25.0,16.3,5.3,17.2,7.8,1.0,85,69,50,30.41,29.91,23,3,23,0.00
2013-1-25,20.0,14.7,7.3,16.6,6.7,1.4,87,71,52,30.37,29.98,9,1,9,0.00
2013-1-26,27.5,25.1,22.0,25.5,20.6,16.5,94,83,76,30.30,30.00,7,4,20,0.00
2013-1-27,37.9,26.3,9.0,25.8,18.9,6.9,91,74,54,30.42,30.27,2,0,6,0.07
2013-1-28,54.9,41.3,30.3,46.2,37.6,24.7,96,87,72,30.26,30.03,4,1,12,0.01
2013-1-29,67.2,54.0,44.6,52.7,47.7,41.6,96,80,58,30.02,29.78,2,1,8,0.00
2013-1-30,65.6,56.5,44.1,58.4,52.8,42.5,97,88,75,29.77,29.19,6,2,20,1.91
2013-1-31,43.9,30.4,25.0,42.3,24.1,14.8,94,78,59,29.77,29.18,9,4,28,0.05
2013-2-1,28.5,13.0,2.9,25.4,4.7,-0.4,94,70,53,30.25,29.67,21,3,29,0.31
2013-2-2,26.9,17.4,2.6,25.2,13.3,0.2,94,84,54,30.25,29.90,9,1,9,0.00
2013-2-3,29.9,25.6,21.7,24.9,21.2,15.9,94,84,74,29.93,29.72,25,2,25,0.00
2013-2-4,37.6,26.4,16.8,31.3,18.4,10.3,82,72,57,30.00,29.80,22,2,22,0.04
2013-2-5,41.9,37.0,32.5,34.2,30.8,26.8,90,78,68,29.81,29.74,12,1,12,0.04
2013-2-6,44.6,34.9,24.6,32.9,27.8,22.5,93,76,52,30.15,29.79,12,2,12,0.00
2013-2-7,38.1,33.0,24.4,33.2,28.2,22.4,94,83,74,30.17,30.02,13,2,13,0.00
2013-3-14,37.8,26.9,20.2,19.4,16.5,12.9,89,67,40,30.15,30.04,21,11,21,0.00
2013-3-15,55.6,36.7,19.5,34.6,24.8,14.6,83,64,41,30.08,29.74,15,5,15,0.00
2013-3-16,68.1,49.7,30.3,51.4,42.1,28.3,96,77,47,29.75,29.45,23,7,23,0.10
2013-3-17,48.7,42.3,36.1,44.1,39.0,33.5,94,88,82,29.94,29.71,12,5,12,0.23
2013-3-18,35.7,32.7,30.8,33.1,30.3,28.1,96,91,87,29.95,29.71,19,8,19,0.26
2013-3-19,49.3,38.8,32.5,33.0,21.6,1.6,96,59,16,29.89,29.68,29,10,29,0.00
2013-3-20,44.7,35.7,22.9,17.1,11.7,5.9,63,38,24,29.90,29.64,22,7,22,4.89
2013-3-21,18.8,18.6,18.4,13.4,12.9,11.5,79,78,76,29.68,29.67,12,5,12,4.89
2013-6-5,76.8,64.7,51.7,65.4,58.3,51.2,99,81,63,29.95,29.81,5,2,14,0.00
2013-6-6,70.0,64.0,60.5,64.6,60.6,57.4,95,89,79,29.84,29.62,4,2,13,0.65
2013-6-7,68.4,63.7,57.8,65.6,61.5,55.8,97,92,86,29.67,29.48,4,1,13,0.43
2013-6-8,77.6,64.1,55.3,61.5,56.8,54.1,98,80,47,29.92,29.66,3,1,11,0.00
2013-6-9,82.6,67.6,54.1,65.6,59.8,53.3,98,79,44,29.99,29.83,4,1,11,0.19
2013-6-10,75.2,66.1,58.6,69.1,63.1,57.8,97,91,74,29.87,29.66,3,1,14,1.22
2013-6-11,64.1,60.7,58.4,61.5,59.7,57.6,98,96,89,29.77,29.68,2,0,9,0.68
2013-6-12,84.3,76.8,65.6,72.1,68.6,64.6,97,77,61,29.75,29.67,13,1,13,0.02
2013-6-13,77.7,67.5,57.2,70.6,64.4,54.3,98,90,76,29.68,29.44,31,2,31,0.47
2013-6-14,69.3,60.4,51.6,59.3,54.4,49.8,99,82,61,29.89,29.61,15,2,15,0.00
2013-6-15,76.6,60.4,47.3,60.0,53.6,46.8,99,81,47,29.99,29.87,10,1,11,0.00
2013-6-16,78.9,65.3,51.7,66.3,59.8,51.2,98,84,57,29.91,29.81,10,1,13,0.14
2013-6-17,63.6,62.0,60.8,62.4,61.0,60.0,98,97,96,29.85,29.82,3,0,3,0.01
2013-6-18,73.0,64.2,58.9,64.7,62.1,58.2,98,93,72,29.76,29.64,5,1,11,1.74
2013-6-19,80.0,65.9,53.5,64.4,59.2,53.2,99,82,45,29.94,29.76,3,1,9,0.00
2013-6-20,81.0,68.0,57.0,65.8,61.6,56.4,99,82,48,30.04,29.94,4,1,10,0.00
2013-6-21,83.5,69.5,55.8,67.4,62.0,55.2,98,79,50,30.08,29.98,8,1,9,0.00
2013-6-22,82.2,67.7,53.0,64.4,58.8,52.1,98,75,50,30.06,29.92,10,1,10,0.00
2013-6-23,84.5,70.8,58.7,67.9,62.6,58.1,99,78,49,30.02,29.91,9,1,9,0.00
2013-6-24,83.8,70.5,61.2,70.5,64.8,60.4,98,83,58,30.00,29.86,13,1,13,0.01
2013-6-25,82.5,70.1,58.8,71.7,65.4,58.2,99,86,63,29.94,29.79,5,1,8,0.00
2013-6-26,80.6,70.2,60.7,71.1,66.6,60.4,99,89,67,29.82,29.69,13,1,13,0.07
2013-6-27,73.7,67.3,62.8,68.7,64.8,61.7,98,92,81,29.70,29.55,12,1,12,0.17
2013-6-28,82.2,71.8,61.0,69.5,64.0,59.6,98,79,49,29.56,29.36,19,2,19,0.04
2013-6-29,81.2,68.1,56.9,65.6,61.0,56.2,98,80,46,29.54,29.40,12,1,12,0.01
2013-6-30,83.4,69.5,57.0,67.7,61.7,56.4,99,79,44,29.65,29.52,19,1,19,0.00
2013-7-1,81.5,70.4,63.2,67.7,64.6,62.3,97,83,60,29.76,29.61,13,1,13,0.06
2013-7-2,78.7,69.6,65.1,68.3,65.5,62.6,94,87,67,29.93,29.75,11,1,11,0.18
2013-7-3,76.3,68.6,63.9,70.1,65.7,62.7,98,91,76,30.03,29.92,7,1,8,0.85
2013-7-4,82.0,72.4,64.6,71.2,67.0,63.9,100,84,64,30.06,29.95,16,1,16,0.07
2013-7-5,83.7,73.0,63.6,72.9,67.1,62.4,98,83,62,30.03,29.93,11,1,11,0.09
2013-7-6,84.0,73.3,61.5,70.6,65.3,60.9,99,78,53,30.02,29.89,11,1,13,0.00
2013-7-7,82.5,68.2,62.9,71.8,64.9,62.0,99,90,66,29.96,29.87,15,1,15,0.18
2013-7-8,79.8,68.7,59.9,70.1,63.9,59.3,99,86,57,30.00,29.92,9,0,9,0.00
2013-7-9,85.5,72.0,61.8,72.0,66.1,60.9,98,83,53,29.98,29.85,9,0,9,0.00
2013-7-10,84.0,70.9,65.8,73.3,68.1,64.6,98,91,67,29.89,29.74,16,1,16,0.89
2013-7-11,66.9,66.1,65.2,66.0,65.4,64.6,98,98,97,29.74,29.73,4,0,4,0.01
2013-10-31,64.9,57.7,51.7,57.9,53.5,51.2,99,87,67,30.02,29.56,15,4,15,0.00
2013-11-1,68.3,60.8,42.9,58.2,52.4,41.3,95,75,49,29.56,29.40,17,8,17,0.01
2013-11-2,55.5,45.0,37.4,44.6,37.3,30.6,99,77,41,29.83,29.55,18,5,18,0.00
2013-11-3,48.0,39.2,26.5,37.6,32.7,25.5,96,78,52,30.25,29.82,17,5,17,0.00
2013-11-4,51.3,36.7,24.2,32.3,27.8,23.0,97,73,46,30.40,30.24,13,4,13,0.00
2013-11-5,53.6,42.8,31.7,44.8,32.9,24.8,93,69,41,30.41,30.27,9,3,9,0.00
2013-11-6,66.1,54.8,44.4,52.5,47.7,42.8,94,78,57,30.28,29.96,15,4,15,30.27
2013-11-7,56.1,45.3,38.0,47.9,38.1,31.3,79,76,74,29.98,29.77,18,2,18,30.27
2013-11-9,56.2,43.7,23.5,31.3,25.8,16.6,95,52,28,30.20,30.01,11,1,12,30.30
2013-11-10,55.4,41.6,24.4,35.7,27.8,21.6,89,60,29,30.17,29.95,21,2,21,0.00
2013-11-11,59.9,37.4,23.2,30.4,25.3,19.0,96,67,23,30.20,29.96,7,0,8,0.00
2013-11-12,46.9,33.4,19.8,29.9,21.9,16.3,92,65,35,30.34,29.89,19,3,19,0.00
2013-11-13,32.7,22.7,0.0,20.6,16.2,13.7,92,72,50,30.43,30.32,17,5,17,0.00
2013-11-14,49.2,22.1,14.9,18.7,14.3,13.0,93,79,28,30.37,30.24,7,1,9,0.00
2013-11-16,49.3,43.1,38.0,42.0,33.1,7.7,98,77,28,30.11,30.07,2,1,6,0.18
2013-11-18,60.0,49.1,39.9,56.9,36.5,26.7,95,65,35,29.86,29.57,24,3,24,0.19
2013-11-19,39.9,33.3,25.1,28.4,24.6,21.8,90,71,57,30.19,29.86,22,3,22,0.00
2013-11-20,43.7,31.0,0.0,24.7,22.6,20.6,86,63,42,30.33,30.18,14,3,14,0.00
2013-11-22,60.0,52.1,35.9,53.8,47.5,21.7,97,85,56,30.13,29.94,15,1,15,0.07
2013-11-23,47.2,36.9,21.7,43.7,30.3,13.4,92,77,59,30.15,29.96,24,4,25,0.00
2013-11-24,22.6,17.5,9.9,15.5,5.9,1.3,84,61,40,30.42,30.14,21,5,21,0.00
2013-11-25,38.2,23.0,9.2,18.4,9.4,4.4,86,60,28,30.45,30.23,6,0,6,0.00
2013-11-26,31.9,31.9,31.9,15.3,15.3,15.3,50,50,50,30.24,30.24,0,0,1,0.00
2013-11-27,31.9,31.9,31.9,15.3,15.3,15.3,50,50,50,30.24,30.24,0,0,1,0.00
2013-11-28,31.9,31.9,31.9,15.3,15.3,15.3,50,50,50,30.24,30.24,0,0,1,0.00